sensor_id;sensor_type;location;lat;lon;timestamp;P1;durP1;ratioP1;P2;durP2;ratioP2
41263;SDS011;26998;48.714;9.414;2022-11-20T00:01:16;10.85;;;7.60;;
41263;SDS011;26998;48.714;9.414;2022-11-20T00:03:45;12.27;;;7.40;;
41263;SDS011;26998;48.714;9.414;2022-11-20T00:06:13;9.05;;;6.75;;
41263;SDS011;26998;48.714;9.414;2022-11-20T00:08:41;10.68;;;6.45;;
41263;SDS011;26998;48.714;9.414;2022-11-20T00:11:18;9.40;;;6.65;;
41263;SDS011;26998;48.714;9.414;2022-11-20T00:13:47;8.63;;;6.72;;
41263;SDS011;26998;48.714;9.414;2022-11-20T00:16:16;8.63;;;6.85;;
41263;SDS011;26998;48.714;9.414;2022-11-20T00:18:44;10.43;;;6.88;;
41263;SDS011;26998;48.714;9.414;2022-11-20T00:21:12;9.65;;;6.60;;
41263;SDS011;26998;48.714;9.414;2022-11-20T00:23:40;10.52;;;7.05;;
41263;SDS011;26998;48.714;9.414;2022-11-20T00:26:07;7.88;;;6.15;;
41263;SDS011;26998;48.714;9.414;2022-11-20T00:28:35;9.48;;;6.22;;
41263;SDS011;26998;48.714;9.414;2022-11-20T00:31:07;9.15;;;6.90;;
41263;SDS011;26998;48.714;9.414;2022-11-20T00:33:35;11.50;;;7.40;;
41263;SDS011;26998;48.714;9.414;2022-11-20T00:36:02;12.18;;;7.22;;
41263;SDS011;26998;48.714;9.414;2022-11-20T00:38:31;14.27;;;7.47;;
41263;SDS011;26998;48.714;9.414;2022-11-20T00:41:00;10.82;;;7.35;;
41263;SDS011;26998;48.714;9.414;2022-11-20T00:43:28;8.43;;;6.78;;
41263;SDS011;26998;48.714;9.414;2022-11-20T00:45:57;10.63;;;6.75;;
41263;SDS011;26998;48.714;9.414;2022-11-20T00:48:24;11.25;;;6.90;;
41263;SDS011;26998;48.714;9.414;2022-11-20T00:50:51;7.82;;;6.38;;
41263;SDS011;26998;48.714;9.414;2022-11-20T00:53:17;9.63;;;6.40;;
41263;SDS011;26998;48.714;9.414;2022-11-20T00:56:00;9.95;;;6.22;;
41263;SDS011;26998;48.714;9.414;2022-11-20T00:58:32;8.40;;;6.28;;
41263;SDS011;26998;48.714;9.414;2022-11-20T01:01:01;8.55;;;5.97;;
41263;SDS011;26998;48.714;9.414;2022-11-20T01:03:32;9.02;;;6.20;;
41263;SDS011;26998;48.714;9.414;2022-11-20T01:06:01;7.28;;;5.53;;
41263;SDS011;26998;48.714;9.414;2022-11-20T01:08:33;9.40;;;6.25;;
41263;SDS011;26998;48.714;9.414;2022-11-20T01:11:04;7.30;;;5.72;;
41263;SDS011;26998;48.714;9.414;2022-11-20T01:13:35;9.13;;;5.43;;
41263;SDS011;26998;48.714;9.414;2022-11-20T01:16:04;8.27;;;5.78;;
41263;SDS011;26998;48.714;9.414;2022-11-20T01:18:30;6.28;;;5.28;;
41263;SDS011;26998;48.714;9.414;2022-11-20T01:21:04;7.53;;;5.45;;
41263;SDS011;26998;48.714;9.414;2022-11-20T01:23:33;9.88;;;5.72;;
41263;SDS011;26998;48.714;9.414;2022-11-20T01:26:05;8.00;;;5.78;;
41263;SDS011;26998;48.714;9.414;2022-11-20T01:28:33;6.35;;;5.45;;
41263;SDS011;26998;48.714;9.414;2022-11-20T01:31:01;8.27;;;5.18;;
41263;SDS011;26998;48.714;9.414;2022-11-20T01:33:28;5.30;;;4.53;;
41263;SDS011;26998;48.714;9.414;2022-11-20T01:36:02;10.70;;;5.53;;
41263;SDS011;26998;48.714;9.414;2022-11-20T01:38:29;6.15;;;4.10;;
41263;SDS011;26998;48.714;9.414;2022-11-20T01:40:56;6.72;;;4.90;;
41263;SDS011;26998;48.714;9.414;2022-11-20T01:43:22;9.15;;;4.95;;
41263;SDS011;26998;48.714;9.414;2022-11-20T01:45:59;6.38;;;4.95;;
41263;SDS011;26998;48.714;9.414;2022-11-20T01:48:42;7.13;;;5.10;;
41263;SDS011;26998;48.714;9.414;2022-11-20T01:51:26;6.50;;;4.70;;
41263;SDS011;26998;48.714;9.414;2022-11-20T01:53:53;7.68;;;4.90;;
41263;SDS011;26998;48.714;9.414;2022-11-20T01:56:22;5.95;;;4.72;;
41263;SDS011;26998;48.714;9.414;2022-11-20T01:58:51;6.57;;;4.65;;
41263;SDS011;26998;48.714;9.414;2022-11-20T02:01:20;6.28;;;4.93;;
41263;SDS011;26998;48.714;9.414;2022-11-20T02:03:47;5.72;;;4.50;;
41263;SDS011;26998;48.714;9.414;2022-11-20T02:06:23;6.85;;;4.72;;
41263;SDS011;26998;48.714;9.414;2022-11-20T02:08:55;7.28;;;4.82;;
41263;SDS011;26998;48.714;9.414;2022-11-20T02:11:22;5.10;;;4.40;;
41263;SDS011;26998;48.714;9.414;2022-11-20T02:13:48;5.00;;;4.10;;
41263;SDS011;26998;48.714;9.414;2022-11-20T02:16:21;7.18;;;4.70;;
41263;SDS011;26998;48.714;9.414;2022-11-20T02:18:53;6.18;;;4.57;;
41263;SDS011;26998;48.714;9.414;2022-11-20T02:21:37;7.35;;;4.72;;
41263;SDS011;26998;48.714;9.414;2022-11-20T02:26:46;4.63;;;4.15;;
41263;SDS011;26998;48.714;9.414;2022-11-20T02:29:19;7.13;;;6.00;;
41263;SDS011;26998;48.714;9.414;2022-11-20T02:31:50;5.30;;;4.20;;
41263;SDS011;26998;48.714;9.414;2022-11-20T02:34:18;6.78;;;4.70;;
41263;SDS011;26998;48.714;9.414;2022-11-20T02:36:44;6.20;;;4.85;;
41263;SDS011;26998;48.714;9.414;2022-11-20T02:39:12;4.95;;;4.28;;
41263;SDS011;26998;48.714;9.414;2022-11-20T02:41:39;6.60;;;4.88;;
41263;SDS011;26998;48.714;9.414;2022-11-20T02:44:06;5.82;;;4.68;;
41263;SDS011;26998;48.714;9.414;2022-11-20T02:46:32;5.05;;;4.55;;
41263;SDS011;26998;48.714;9.414;2022-11-20T02:49:00;4.57;;;4.10;;
41263;SDS011;26998;48.714;9.414;2022-11-20T02:51:27;5.00;;;4.20;;
41263;SDS011;26998;48.714;9.414;2022-11-20T02:53:54;5.78;;;4.63;;
41263;SDS011;26998;48.714;9.414;2022-11-20T02:56:21;7.68;;;4.93;;
41263;SDS011;26998;48.714;9.414;2022-11-20T02:58:47;5.40;;;4.70;;
41263;SDS011;26998;48.714;9.414;2022-11-20T03:01:14;7.32;;;4.97;;
41263;SDS011;26998;48.714;9.414;2022-11-20T03:03:40;6.18;;;4.85;;
41263;SDS011;26998;48.714;9.414;2022-11-20T03:06:07;7.07;;;5.43;;
41263;SDS011;26998;48.714;9.414;2022-11-20T03:08:34;7.60;;;5.28;;
41263;SDS011;26998;48.714;9.414;2022-11-20T03:11:04;7.22;;;5.45;;
41263;SDS011;26998;48.714;9.414;2022-11-20T03:13:32;6.57;;;4.95;;
41263;SDS011;26998;48.714;9.414;2022-11-20T03:16:04;7.30;;;4.97;;
41263;SDS011;26998;48.714;9.414;2022-11-20T03:18:42;7.53;;;6.13;;
41263;SDS011;26998;48.714;9.414;2022-11-20T03:21:10;7.53;;;5.40;;
41263;SDS011;26998;48.714;9.414;2022-11-20T03:23:37;9.30;;;5.40;;
41263;SDS011;26998;48.714;9.414;2022-11-20T03:28:37;6.40;;;4.72;;
41263;SDS011;26998;48.714;9.414;2022-11-20T03:31:07;6.57;;;4.82;;
41263;SDS011;26998;48.714;9.414;2022-11-20T03:33:36;6.13;;;4.60;;
41263;SDS011;26998;48.714;9.414;2022-11-20T03:36:03;6.07;;;4.65;;
41263;SDS011;26998;48.714;9.414;2022-11-20T03:38:31;9.18;;;5.20;;
41263;SDS011;26998;48.714;9.414;2022-11-20T03:41:03;5.30;;;4.72;;
41263;SDS011;26998;48.714;9.414;2022-11-20T03:43:31;5.90;;;5.18;;
41263;SDS011;26998;48.714;9.414;2022-11-20T03:45:58;9.07;;;5.00;;
41263;SDS011;26998;48.714;9.414;2022-11-20T03:48:25;4.85;;;4.30;;
41263;SDS011;26998;48.714;9.414;2022-11-20T03:50:52;8.07;;;4.60;;
41263;SDS011;26998;48.714;9.414;2022-11-20T03:53:19;6.90;;;4.47;;
41263;SDS011;26998;48.714;9.414;2022-11-20T03:55:50;6.35;;;4.95;;
41263;SDS011;26998;48.714;9.414;2022-11-20T03:58:17;5.30;;;4.40;;
41263;SDS011;26998;48.714;9.414;2022-11-20T04:00:44;6.07;;;4.80;;
41263;SDS011;26998;48.714;9.414;2022-11-20T04:03:10;5.78;;;4.72;;
41263;SDS011;26998;48.714;9.414;2022-11-20T04:05:37;8.20;;;5.25;;
41263;SDS011;26998;48.714;9.414;2022-11-20T04:08:03;5.18;;;4.55;;
41263;SDS011;26998;48.714;9.414;2022-11-20T04:10:30;5.45;;;4.72;;
41263;SDS011;26998;48.714;9.414;2022-11-20T04:12:57;6.90;;;5.13;;
41263;SDS011;26998;48.714;9.414;2022-11-20T04:15:23;5.95;;;5.10;;
41263;SDS011;26998;48.714;9.414;2022-11-20T04:17:50;5.25;;;4.53;;
41263;SDS011;26998;48.714;9.414;2022-11-20T04:20:16;6.72;;;5.18;;
41263;SDS011;26998;48.714;9.414;2022-11-20T04:22:43;5.57;;;4.38;;
41263;SDS011;26998;48.714;9.414;2022-11-20T04:25:09;9.07;;;5.20;;
41263;SDS011;26998;48.714;9.414;2022-11-20T04:27:35;5.93;;;5.03;;
41263;SDS011;26998;48.714;9.414;2022-11-20T04:30:02;6.35;;;4.80;;
41263;SDS011;26998;48.714;9.414;2022-11-20T04:32:29;5.03;;;4.50;;
41263;SDS011;26998;48.714;9.414;2022-11-20T04:34:55;8.38;;;4.40;;
41263;SDS011;26998;48.714;9.414;2022-11-20T04:37:22;6.88;;;4.75;;
41263;SDS011;26998;48.714;9.414;2022-11-20T04:39:48;7.55;;;4.10;;
41263;SDS011;26998;48.714;9.414;2022-11-20T04:42:15;5.38;;;3.95;;
41263;SDS011;26998;48.714;9.414;2022-11-20T04:44:41;4.78;;;3.45;;
41263;SDS011;26998;48.714;9.414;2022-11-20T04:47:08;7.00;;;3.67;;
41263;SDS011;26998;48.714;9.414;2022-11-20T04:49:34;3.90;;;3.50;;
41263;SDS011;26998;48.714;9.414;2022-11-20T04:52:01;6.60;;;4.20;;
41263;SDS011;26998;48.714;9.414;2022-11-20T04:54:28;5.30;;;3.15;;
41263;SDS011;26998;48.714;9.414;2022-11-20T04:56:54;4.45;;;3.05;;
41263;SDS011;26998;48.714;9.414;2022-11-20T04:59:21;5.22;;;3.33;;
41263;SDS011;26998;48.714;9.414;2022-11-20T05:01:48;4.72;;;3.05;;
41263;SDS011;26998;48.714;9.414;2022-11-20T05:04:14;3.30;;;2.92;;
41263;SDS011;26998;48.714;9.414;2022-11-20T05:06:41;3.35;;;2.90;;
41263;SDS011;26998;48.714;9.414;2022-11-20T05:09:07;6.15;;;2.95;;
41263;SDS011;26998;48.714;9.414;2022-11-20T05:11:36;4.97;;;2.88;;
41263;SDS011;26998;48.714;9.414;2022-11-20T05:14:02;6.35;;;3.53;;
41263;SDS011;26998;48.714;9.414;2022-11-20T05:16:29;4.13;;;3.50;;
41263;SDS011;26998;48.714;9.414;2022-11-20T05:18:55;4.10;;;2.67;;
41263;SDS011;26998;48.714;9.414;2022-11-20T05:21:22;3.38;;;2.70;;
41263;SDS011;26998;48.714;9.414;2022-11-20T05:23:48;4.68;;;3.28;;
41263;SDS011;26998;48.714;9.414;2022-11-20T05:26:19;4.82;;;3.10;;
41263;SDS011;26998;48.714;9.414;2022-11-20T05:28:48;5.43;;;2.60;;
41263;SDS011;26998;48.714;9.414;2022-11-20T05:31:16;4.72;;;3.20;;
41263;SDS011;26998;48.714;9.414;2022-11-20T05:33:53;2.97;;;2.70;;
41263;SDS011;26998;48.714;9.414;2022-11-20T05:36:20;3.80;;;2.63;;
41263;SDS011;26998;48.714;9.414;2022-11-20T05:38:47;3.03;;;2.47;;
41263;SDS011;26998;48.714;9.414;2022-11-20T05:41:17;2.90;;;2.50;;
41263;SDS011;26998;48.714;9.414;2022-11-20T05:43:46;5.57;;;2.47;;
41263;SDS011;26998;48.714;9.414;2022-11-20T05:46:14;3.58;;;2.17;;
41263;SDS011;26998;48.714;9.414;2022-11-20T05:48:42;2.60;;;2.33;;
41263;SDS011;26998;48.714;9.414;2022-11-20T05:51:11;3.63;;;2.15;;
41263;SDS011;26998;48.714;9.414;2022-11-20T05:53:39;4.53;;;2.38;;
41263;SDS011;26998;48.714;9.414;2022-11-20T05:56:14;2.55;;;2.30;;
41263;SDS011;26998;48.714;9.414;2022-11-20T05:58:43;2.50;;;2.00;;
41263;SDS011;26998;48.714;9.414;2022-11-20T06:01:12;2.90;;;2.15;;
41263;SDS011;26998;48.714;9.414;2022-11-20T06:03:41;2.13;;;1.73;;
41263;SDS011;26998;48.714;9.414;2022-11-20T06:06:09;2.20;;;1.80;;
41263;SDS011;26998;48.714;9.414;2022-11-20T06:08:35;2.70;;;2.30;;
41263;SDS011;26998;48.714;9.414;2022-11-20T06:11:05;2.22;;;1.83;;
41263;SDS011;26998;48.714;9.414;2022-11-20T06:16:04;3.38;;;2.17;;
41263;SDS011;26998;48.714;9.414;2022-11-20T06:18:31;2.17;;;1.98;;
41263;SDS011;26998;48.714;9.414;2022-11-20T06:20:59;5.70;;;2.05;;
41263;SDS011;26998;48.714;9.414;2022-11-20T06:23:32;2.15;;;1.95;;
41263;SDS011;26998;48.714;9.414;2022-11-20T06:26:01;4.10;;;2.65;;
41263;SDS011;26998;48.714;9.414;2022-11-20T06:28:28;2.65;;;1.85;;
41263;SDS011;26998;48.714;9.414;2022-11-20T06:30:54;2.92;;;2.28;;
41263;SDS011;26998;48.714;9.414;2022-11-20T06:33:21;3.92;;;2.20;;
41263;SDS011;26998;48.714;9.414;2022-11-20T06:35:48;2.42;;;2.08;;
41263;SDS011;26998;48.714;9.414;2022-11-20T06:38:14;3.40;;;2.20;;
41263;SDS011;26998;48.714;9.414;2022-11-20T06:40:41;3.95;;;2.10;;
41263;SDS011;26998;48.714;9.414;2022-11-20T06:43:09;2.53;;;1.90;;
41263;SDS011;26998;48.714;9.414;2022-11-20T06:45:36;3.65;;;1.80;;
41263;SDS011;26998;48.714;9.414;2022-11-20T06:48:03;2.33;;;2.00;;
41263;SDS011;26998;48.714;9.414;2022-11-20T06:50:30;3.20;;;1.98;;
41263;SDS011;26998;48.714;9.414;2022-11-20T06:52:59;2.15;;;1.50;;
41263;SDS011;26998;48.714;9.414;2022-11-20T06:55:27;3.45;;;2.40;;
41263;SDS011;26998;48.714;9.414;2022-11-20T06:57:53;2.10;;;1.90;;
41263;SDS011;26998;48.714;9.414;2022-11-20T07:00:21;1.80;;;1.70;;
41263;SDS011;26998;48.714;9.414;2022-11-20T07:02:48;3.95;;;2.30;;
41263;SDS011;26998;48.714;9.414;2022-11-20T07:05:14;2.72;;;1.92;;
41263;SDS011;26998;48.714;9.414;2022-11-20T07:07:40;4.15;;;2.30;;
41263;SDS011;26998;48.714;9.414;2022-11-20T07:10:07;2.47;;;2.00;;
41263;SDS011;26998;48.714;9.414;2022-11-20T07:12:34;3.45;;;2.38;;
41263;SDS011;26998;48.714;9.414;2022-11-20T07:15:01;3.72;;;2.30;;
41263;SDS011;26998;48.714;9.414;2022-11-20T07:17:27;1.95;;;1.85;;
41263;SDS011;26998;48.714;9.414;2022-11-20T07:19:54;4.30;;;2.30;;
41263;SDS011;26998;48.714;9.414;2022-11-20T07:22:20;2.00;;;1.90;;
41263;SDS011;26998;48.714;9.414;2022-11-20T07:24:47;2.33;;;2.00;;
41263;SDS011;26998;48.714;9.414;2022-11-20T07:27:14;2.65;;;1.92;;
41263;SDS011;26998;48.714;9.414;2022-11-20T07:29:41;3.53;;;2.05;;
41263;SDS011;26998;48.714;9.414;2022-11-20T07:32:07;3.65;;;1.83;;
41263;SDS011;26998;48.714;9.414;2022-11-20T07:34:35;5.00;;;2.10;;
41263;SDS011;26998;48.714;9.414;2022-11-20T07:37:02;11.00;;;2.17;;
41263;SDS011;26998;48.714;9.414;2022-11-20T07:39:35;3.00;;;2.10;;
41263;SDS011;26998;48.714;9.414;2022-11-20T07:42:01;2.33;;;2.13;;
41263;SDS011;26998;48.714;9.414;2022-11-20T07:44:28;3.55;;;1.95;;
41263;SDS011;26998;48.714;9.414;2022-11-20T07:46:54;2.53;;;2.03;;
41263;SDS011;26998;48.714;9.414;2022-11-20T07:49:21;2.63;;;2.10;;
41263;SDS011;26998;48.714;9.414;2022-11-20T07:51:49;3.05;;;2.75;;
41263;SDS011;26998;48.714;9.414;2022-11-20T07:54:17;2.80;;;2.10;;
41263;SDS011;26998;48.714;9.414;2022-11-20T07:56:43;2.47;;;1.65;;
41263;SDS011;26998;48.714;9.414;2022-11-20T07:59:10;2.47;;;2.00;;
41263;SDS011;26998;48.714;9.414;2022-11-20T08:01:36;2.72;;;2.28;;
41263;SDS011;26998;48.714;9.414;2022-11-20T08:04:03;2.78;;;2.17;;
41263;SDS011;26998;48.714;9.414;2022-11-20T08:06:30;3.83;;;2.10;;
41263;SDS011;26998;48.714;9.414;2022-11-20T08:08:56;2.40;;;2.00;;
41263;SDS011;26998;48.714;9.414;2022-11-20T08:11:23;3.15;;;2.05;;
41263;SDS011;26998;48.714;9.414;2022-11-20T08:13:49;2.03;;;1.88;;
41263;SDS011;26998;48.714;9.414;2022-11-20T08:16:16;3.08;;;1.65;;
41263;SDS011;26998;48.714;9.414;2022-11-20T08:18:43;3.70;;;2.13;;
41263;SDS011;26998;48.714;9.414;2022-11-20T08:21:09;2.15;;;1.80;;
41263;SDS011;26998;48.714;9.414;2022-11-20T08:23:36;3.13;;;1.80;;
41263;SDS011;26998;48.714;9.414;2022-11-20T08:26:02;3.03;;;1.60;;
41263;SDS011;26998;48.714;9.414;2022-11-20T08:28:29;2.33;;;2.10;;
41263;SDS011;26998;48.714;9.414;2022-11-20T08:31:01;2.33;;;2.05;;
41263;SDS011;26998;48.714;9.414;2022-11-20T08:33:29;3.22;;;2.40;;
41263;SDS011;26998;48.714;9.414;2022-11-20T08:36:02;2.08;;;1.83;;
41263;SDS011;26998;48.714;9.414;2022-11-20T08:38:29;3.45;;;1.83;;
41263;SDS011;26998;48.714;9.414;2022-11-20T08:41:00;2.42;;;1.98;;
41263;SDS011;26998;48.714;9.414;2022-11-20T08:43:28;2.70;;;1.48;;
41263;SDS011;26998;48.714;9.414;2022-11-20T08:45:56;2.10;;;1.90;;
41263;SDS011;26998;48.714;9.414;2022-11-20T08:48:23;2.63;;;2.17;;
41263;SDS011;26998;48.714;9.414;2022-11-20T08:50:49;2.05;;;1.85;;
41263;SDS011;26998;48.714;9.414;2022-11-20T08:53:16;3.25;;;2.20;;
41263;SDS011;26998;48.714;9.414;2022-11-20T08:55:42;2.75;;;2.17;;
41263;SDS011;26998;48.714;9.414;2022-11-20T08:58:09;2.30;;;1.55;;
41263;SDS011;26998;48.714;9.414;2022-11-20T09:00:35;1.98;;;1.60;;
41263;SDS011;26998;48.714;9.414;2022-11-20T09:03:02;1.95;;;1.83;;
41263;SDS011;26998;48.714;9.414;2022-11-20T09:05:28;2.45;;;2.00;;
41263;SDS011;26998;48.714;9.414;2022-11-20T09:07:56;5.18;;;2.40;;
41263;SDS011;26998;48.714;9.414;2022-11-20T09:10:23;3.47;;;2.60;;
41263;SDS011;26998;48.714;9.414;2022-11-20T09:12:53;3.00;;;2.00;;
41263;SDS011;26998;48.714;9.414;2022-11-20T09:15:19;3.55;;;2.42;;
41263;SDS011;26998;48.714;9.414;2022-11-20T09:20:19;2.80;;;1.80;;
41263;SDS011;26998;48.714;9.414;2022-11-20T09:22:46;2.92;;;2.05;;
41263;SDS011;26998;48.714;9.414;2022-11-20T09:25:13;2.85;;;2.13;;
41263;SDS011;26998;48.714;9.414;2022-11-20T09:27:40;3.42;;;2.15;;
41263;SDS011;26998;48.714;9.414;2022-11-20T09:30:07;4.00;;;2.10;;
41263;SDS011;26998;48.714;9.414;2022-11-20T09:32:33;3.20;;;1.60;;
41263;SDS011;26998;48.714;9.414;2022-11-20T09:35:00;1.63;;;1.52;;
41263;SDS011;26998;48.714;9.414;2022-11-20T09:37:26;2.38;;;1.80;;
41263;SDS011;26998;48.714;9.414;2022-11-20T09:39:53;1.50;;;1.40;;
41263;SDS011;26998;48.714;9.414;2022-11-20T09:42:41;3.00;;;1.85;;
41263;SDS011;26998;48.714;9.414;2022-11-20T09:50:36;1.52;;;1.42;;
41263;SDS011;26998;48.714;9.414;2022-11-20T09:56:27;1.75;;;1.30;;
41263;SDS011;26998;48.714;9.414;2022-11-20T09:58:55;1.77;;;1.50;;
41263;SDS011;26998;48.714;9.414;2022-11-20T10:01:26;2.20;;;1.25;;
41263;SDS011;26998;48.714;9.414;2022-11-20T10:03:58;2.83;;;1.58;;
41263;SDS011;26998;48.714;9.414;2022-11-20T10:11:48;1.77;;;1.67;;
41263;SDS011;26998;48.714;9.414;2022-11-20T10:22:49;4.50;;;1.35;;
41263;SDS011;26998;48.714;9.414;2022-11-20T10:25:33;2.10;;;1.50;;
41263;SDS011;26998;48.714;9.414;2022-11-20T10:30:46;15.68;;;2.88;;
41263;SDS011;26998;48.714;9.414;2022-11-20T10:33:23;4.68;;;1.33;;
41263;SDS011;26998;48.714;9.414;2022-11-20T10:38:54;3.83;;;1.55;;
41263;SDS011;26998;48.714;9.414;2022-11-20T10:41:32;2.38;;;1.20;;
41263;SDS011;26998;48.714;9.414;2022-11-20T10:46:48;1.75;;;1.60;;
41263;SDS011;26998;48.714;9.414;2022-11-20T10:49:16;3.00;;;1.50;;
41263;SDS011;26998;48.714;9.414;2022-11-20T11:00:16;0.88;;;0.82;;
41263;SDS011;26998;48.714;9.414;2022-11-20T11:02:49;2.55;;;1.38;;
41263;SDS011;26998;48.714;9.414;2022-11-20T11:05:22;2.35;;;1.65;;
41263;SDS011;26998;48.714;9.414;2022-11-20T11:07:54;4.88;;;3.25;;
41263;SDS011;26998;48.714;9.414;2022-11-20T11:13:20;2.42;;;1.60;;
41263;SDS011;26998;48.714;9.414;2022-11-20T11:15:51;2.47;;;1.20;;
41263;SDS011;26998;48.714;9.414;2022-11-20T11:18:31;1.98;;;1.75;;
41263;SDS011;26998;48.714;9.414;2022-11-20T11:21:00;2.05;;;1.30;;
41263;SDS011;26998;48.714;9.414;2022-11-20T11:23:31;1.98;;;1.42;;
41263;SDS011;26998;48.714;9.414;2022-11-20T11:26:04;1.65;;;1.27;;
41263;SDS011;26998;48.714;9.414;2022-11-20T11:28:32;0.93;;;0.90;;
41263;SDS011;26998;48.714;9.414;2022-11-20T11:30:59;1.58;;;1.48;;
41263;SDS011;26998;48.714;9.414;2022-11-20T11:33:27;1.70;;;1.60;;
41263;SDS011;26998;48.714;9.414;2022-11-20T11:35:56;1.85;;;1.60;;
41263;SDS011;26998;48.714;9.414;2022-11-20T11:41:01;2.80;;;1.55;;
41263;SDS011;26998;48.714;9.414;2022-11-20T11:43:30;1.92;;;1.52;;
41263;SDS011;26998;48.714;9.414;2022-11-20T11:46:03;3.75;;;1.55;;
41263;SDS011;26998;48.714;9.414;2022-11-20T11:48:57;1.63;;;1.52;;
41263;SDS011;26998;48.714;9.414;2022-11-20T11:51:26;1.95;;;1.73;;
41263;SDS011;26998;48.714;9.414;2022-11-20T11:53:59;1.85;;;1.60;;
41263;SDS011;26998;48.714;9.414;2022-11-20T11:56:29;2.40;;;1.65;;
41263;SDS011;26998;48.714;9.414;2022-11-20T11:59:00;1.88;;;1.65;;
41263;SDS011;26998;48.714;9.414;2022-11-20T12:01:37;2.50;;;1.80;;
41263;SDS011;26998;48.714;9.414;2022-11-20T12:04:18;2.72;;;1.77;;
41263;SDS011;26998;48.714;9.414;2022-11-20T12:06:46;2.33;;;1.77;;
41263;SDS011;26998;48.714;9.414;2022-11-20T12:09:18;2.65;;;1.88;;
41263;SDS011;26998;48.714;9.414;2022-11-20T12:11:47;4.45;;;1.90;;
41263;SDS011;26998;48.714;9.414;2022-11-20T12:16:54;2.65;;;1.63;;
41263;SDS011;26998;48.714;9.414;2022-11-20T12:19:23;2.50;;;1.48;;
41263;SDS011;26998;48.714;9.414;2022-11-20T12:22:15;2.00;;;1.52;;
41263;SDS011;26998;48.714;9.414;2022-11-20T12:30:28;2.05;;;1.13;;
41263;SDS011;26998;48.714;9.414;2022-11-20T12:35:51;1.83;;;1.30;;
41263;SDS011;26998;48.714;9.414;2022-11-20T12:44:05;1.67;;;1.35;;
41263;SDS011;26998;48.714;9.414;2022-11-20T12:46:59;2.47;;;1.30;;
41263;SDS011;26998;48.714;9.414;2022-11-20T12:49:42;2.15;;;1.42;;
41263;SDS011;26998;48.714;9.414;2022-11-20T12:52:25;1.20;;;1.10;;
41263;SDS011;26998;48.714;9.414;2022-11-20T12:55:12;2.92;;;1.45;;
41263;SDS011;26998;48.714;9.414;2022-11-20T13:00:22;2.35;;;1.40;;
41263;SDS011;26998;48.714;9.414;2022-11-20T13:02:58;1.52;;;1.20;;
41263;SDS011;26998;48.714;9.414;2022-11-20T13:08:20;1.95;;;1.75;;
41263;SDS011;26998;48.714;9.414;2022-11-20T13:11:01;2.42;;;1.50;;
41263;SDS011;26998;48.714;9.414;2022-11-20T13:13:56;1.42;;;1.30;;
41263;SDS011;26998;48.714;9.414;2022-11-20T13:19:03;3.03;;;1.20;;
41263;SDS011;26998;48.714;9.414;2022-11-20T13:21:35;3.28;;;1.33;;
41263;SDS011;26998;48.714;9.414;2022-11-20T13:24:04;4.15;;;1.70;;
41263;SDS011;26998;48.714;9.414;2022-11-20T13:26:46;1.45;;;1.00;;
41263;SDS011;26998;48.714;9.414;2022-11-20T13:29:18;1.10;;;0.98;;
41263;SDS011;26998;48.714;9.414;2022-11-20T13:31:46;2.05;;;1.58;;
41263;SDS011;26998;48.714;9.414;2022-11-20T13:34:24;3.10;;;1.05;;
41263;SDS011;26998;48.714;9.414;2022-11-20T13:36:54;1.10;;;0.85;;
41263;SDS011;26998;48.714;9.414;2022-11-20T13:39:30;2.40;;;1.40;;
41263;SDS011;26998;48.714;9.414;2022-11-20T13:42:02;1.63;;;0.90;;
41263;SDS011;26998;48.714;9.414;2022-11-20T13:44:47;2.10;;;1.00;;
41263;SDS011;26998;48.714;9.414;2022-11-20T13:47:23;2.15;;;0.98;;
41263;SDS011;26998;48.714;9.414;2022-11-20T13:49:55;3.45;;;1.38;;
41263;SDS011;26998;48.714;9.414;2022-11-20T13:55:19;2.63;;;1.25;;
41263;SDS011;26998;48.714;9.414;2022-11-20T14:00:50;2.05;;;0.93;;
41263;SDS011;26998;48.714;9.414;2022-11-20T14:03:23;1.50;;;1.25;;
41263;SDS011;26998;48.714;9.414;2022-11-20T14:06:18;4.15;;;1.10;;
41263;SDS011;26998;48.714;9.414;2022-11-20T14:08:51;1.20;;;1.00;;
41263;SDS011;26998;48.714;9.414;2022-11-20T14:11:19;1.27;;;0.90;;
41263;SDS011;26998;48.714;9.414;2022-11-20T14:16:25;3.70;;;1.50;;
41263;SDS011;26998;48.714;9.414;2022-11-20T14:18:53;1.38;;;1.00;;
41263;SDS011;26998;48.714;9.414;2022-11-20T14:21:28;2.42;;;1.00;;
41263;SDS011;26998;48.714;9.414;2022-11-20T14:24:05;3.42;;;1.42;;
41263;SDS011;26998;48.714;9.414;2022-11-20T14:26:32;1.10;;;0.82;;
41263;SDS011;26998;48.714;9.414;2022-11-20T14:28:59;2.38;;;1.50;;
41263;SDS011;26998;48.714;9.414;2022-11-20T14:31:26;1.92;;;1.23;;
41263;SDS011;26998;48.714;9.414;2022-11-20T14:33:54;1.75;;;1.33;;
41263;SDS011;26998;48.714;9.414;2022-11-20T14:36:22;1.73;;;1.33;;
41263;SDS011;26998;48.714;9.414;2022-11-20T14:38:51;1.75;;;0.90;;
41263;SDS011;26998;48.714;9.414;2022-11-20T14:41:20;2.50;;;0.93;;
41263;SDS011;26998;48.714;9.414;2022-11-20T14:43:53;1.88;;;1.10;;
41263;SDS011;26998;48.714;9.414;2022-11-20T14:46:22;1.75;;;1.05;;
41263;SDS011;26998;48.714;9.414;2022-11-20T14:48:50;2.80;;;1.00;;
41263;SDS011;26998;48.714;9.414;2022-11-20T14:51:34;2.53;;;1.13;;
41263;SDS011;26998;48.714;9.414;2022-11-20T14:56:35;5.70;;;1.40;;
41263;SDS011;26998;48.714;9.414;2022-11-20T14:59:01;3.20;;;1.60;;
41263;SDS011;26998;48.714;9.414;2022-11-20T15:01:29;5.10;;;1.98;;
41263;SDS011;26998;48.714;9.414;2022-11-20T15:03:59;4.15;;;1.70;;
41263;SDS011;26998;48.714;9.414;2022-11-20T15:06:27;3.20;;;1.70;;
41263;SDS011;26998;48.714;9.414;2022-11-20T15:08:54;2.80;;;1.73;;
41263;SDS011;26998;48.714;9.414;2022-11-20T15:11:23;2.92;;;1.90;;
41263;SDS011;26998;48.714;9.414;2022-11-20T15:13:54;3.35;;;1.70;;
41263;SDS011;26998;48.714;9.414;2022-11-20T15:16:21;1.55;;;1.45;;
41263;SDS011;26998;48.714;9.414;2022-11-20T15:18:49;1.92;;;1.50;;
41263;SDS011;26998;48.714;9.414;2022-11-20T15:21:18;1.98;;;1.50;;
41263;SDS011;26998;48.714;9.414;2022-11-20T15:23:45;2.13;;;1.30;;
41263;SDS011;26998;48.714;9.414;2022-11-20T15:26:12;1.30;;;1.17;;
41263;SDS011;26998;48.714;9.414;2022-11-20T15:28:45;2.13;;;1.48;;
41263;SDS011;26998;48.714;9.414;2022-11-20T15:31:14;1.45;;;1.02;;
41263;SDS011;26998;48.714;9.414;2022-11-20T15:33:46;2.65;;;1.20;;
41263;SDS011;26998;48.714;9.414;2022-11-20T15:36:13;4.22;;;1.88;;
41263;SDS011;26998;48.714;9.414;2022-11-20T15:38:40;2.17;;;1.60;;
41263;SDS011;26998;48.714;9.414;2022-11-20T15:41:07;1.80;;;1.42;;
41263;SDS011;26998;48.714;9.414;2022-11-20T15:43:34;2.35;;;1.73;;
41263;SDS011;26998;48.714;9.414;2022-11-20T15:48:37;3.92;;;1.45;;
41263;SDS011;26998;48.714;9.414;2022-11-20T15:51:32;2.55;;;1.50;;
41263;SDS011;26998;48.714;9.414;2022-11-20T15:54:08;1.70;;;1.60;;
41263;SDS011;26998;48.714;9.414;2022-11-20T15:56:36;2.50;;;1.90;;
41263;SDS011;26998;48.714;9.414;2022-11-20T15:59:03;2.45;;;1.92;;
41263;SDS011;26998;48.714;9.414;2022-11-20T16:01:30;2.65;;;2.17;;
41263;SDS011;26998;48.714;9.414;2022-11-20T16:03:56;4.05;;;2.30;;
41263;SDS011;26998;48.714;9.414;2022-11-20T16:06:23;3.25;;;2.38;;
41263;SDS011;26998;48.714;9.414;2022-11-20T16:08:49;3.58;;;2.63;;
41263;SDS011;26998;48.714;9.414;2022-11-20T16:11:16;6.47;;;2.90;;
41263;SDS011;26998;48.714;9.414;2022-11-20T16:13:43;4.68;;;3.20;;
41263;SDS011;26998;48.714;9.414;2022-11-20T16:16:23;5.78;;;3.38;;
41263;SDS011;26998;48.714;9.414;2022-11-20T16:18:53;4.20;;;2.78;;
41263;SDS011;26998;48.714;9.414;2022-11-20T16:21:19;4.72;;;3.25;;
41263;SDS011;26998;48.714;9.414;2022-11-20T16:23:46;5.28;;;2.83;;
41263;SDS011;26998;48.714;9.414;2022-11-20T16:26:13;4.95;;;3.40;;
41263;SDS011;26998;48.714;9.414;2022-11-20T16:28:41;2.88;;;2.60;;
41263;SDS011;26998;48.714;9.414;2022-11-20T16:31:08;3.25;;;2.92;;
41263;SDS011;26998;48.714;9.414;2022-11-20T16:33:36;3.65;;;2.80;;
41263;SDS011;26998;48.714;9.414;2022-11-20T16:36:10;5.70;;;3.30;;